createdAt,value
2023-04-25T00:01:07.166Z,68.54
2023-04-25T00:03:36.425Z,68.49
2023-04-25T00:06:04.530Z,68.45
2023-04-25T00:08:33.503Z,68.52
2023-04-25T00:11:01.529Z,68.75
2023-04-25T00:13:29.627Z,68.48
2023-04-25T00:15:57.443Z,68.54
2023-04-25T00:18:25.113Z,68.68
2023-04-25T00:20:52.820Z,68.69
2023-04-25T00:23:20.425Z,68.62
2023-04-25T00:25:51.440Z,68.55
2023-04-25T00:28:19.520Z,68.59
2023-04-25T00:30:47.130Z,68.30
2023-04-25T00:33:14.763Z,68.67
2023-04-25T00:35:42.489Z,68.31
2023-04-25T00:38:10.159Z,68.73
2023-04-25T00:40:37.813Z,68.31
2023-04-25T00:43:06.836Z,68.53
2023-04-25T00:45:40.457Z,68.54
2023-04-25T00:48:08.345Z,68.52
2023-04-25T00:50:36.494Z,68.58
2023-04-25T00:53:04.463Z,68.46
2023-04-25T00:55:33.350Z,68.44
2023-04-25T00:58:01.309Z,68.68
2023-04-25T01:00:31.177Z,68.41
2023-04-25T01:02:58.994Z,68.53
2023-04-25T01:05:26.655Z,68.39
2023-04-25T01:07:54.437Z,68.52
2023-04-25T01:10:22.032Z,68.54
2023-04-25T01:12:49.768Z,68.47
2023-04-25T01:15:17.427Z,68.54
2023-04-25T01:17:46.611Z,68.50
2023-04-25T01:20:15.995Z,68.55
2023-04-25T01:22:45.359Z,68.31
2023-04-25T01:25:13.778Z,68.52
2023-04-25T01:27:42.483Z,68.51
2023-04-25T01:30:11.106Z,68.68
2023-04-25T01:32:40.147Z,68.49
2023-04-25T01:37:52.887Z,68.48
2023-04-25T01:40:22.562Z,68.51
2023-04-25T01:42:50.570Z,68.58
2023-04-25T01:45:19.077Z,68.52
2023-04-25T01:47:49.963Z,68.69
2023-04-25T01:50:18.791Z,68.53
2023-04-25T01:52:46.651Z,68.56
2023-04-25T01:55:15.661Z,68.70
2023-04-25T01:57:43.386Z,68.53
2023-04-25T02:00:12.361Z,68.56
2023-04-25T02:02:40.292Z,68.54
2023-04-25T02:05:09.207Z,68.57
2023-04-25T02:07:36.835Z,68.48
2023-04-25T02:10:04.746Z,68.58
2023-04-25T02:12:33.959Z,68.54
2023-04-25T02:15:01.579Z,68.34
2023-04-25T02:17:29.239Z,68.72
2023-04-25T02:19:56.893Z,68.63
2023-04-25T02:22:24.462Z,68.42
2023-04-25T02:24:52.092Z,68.38
2023-04-25T02:27:19.665Z,68.55
2023-04-25T02:29:48.585Z,68.61
2023-04-25T02:32:16.183Z,68.50
2023-04-25T02:34:43.761Z,68.79
2023-04-25T02:37:11.314Z,68.70
2023-04-25T02:39:38.929Z,68.71
2023-04-25T02:42:06.589Z,68.39
2023-04-25T02:44:34.191Z,68.44
2023-04-25T02:47:03.247Z,68.72
2023-04-25T02:49:30.914Z,68.68
2023-04-25T02:51:58.533Z,68.59
2023-04-25T02:54:26.236Z,68.48
2023-04-25T02:56:54.106Z,68.54
2023-04-25T02:59:21.729Z,68.45
2023-04-25T03:01:49.728Z,68.56
2023-04-25T03:04:20.017Z,68.37
2023-04-25T03:06:47.677Z,68.48
2023-04-25T03:09:15.511Z,68.59
2023-04-25T03:11:43.205Z,68.73
2023-04-25T03:14:10.932Z,68.42
2023-04-25T03:16:38.830Z,68.62
2023-04-25T03:19:06.550Z,68.60
2023-04-25T03:21:37.174Z,68.39
2023-04-25T03:24:06.487Z,68.77
2023-04-25T03:26:34.109Z,68.60
2023-04-25T03:29:01.709Z,68.59
2023-04-25T03:31:29.383Z,68.64
2023-04-25T03:33:57.022Z,68.73
2023-04-25T03:36:24.586Z,68.45
2023-04-25T03:38:53.544Z,68.56
2023-04-25T03:41:21.207Z,68.24
2023-04-25T03:43:49.140Z,68.40
2023-04-25T03:46:16.933Z,68.56
2023-04-25T03:48:44.706Z,68.54
2023-04-25T03:51:12.269Z,68.66
2023-04-25T03:53:39.906Z,68.58
2023-04-25T03:56:09.080Z,68.83
2023-04-25T03:58:36.772Z,68.59
2023-04-25T04:01:08.334Z,68.30
2023-04-25T04:03:36.989Z,68.35
2023-04-25T04:06:06.576Z,68.81
2023-04-25T04:08:34.229Z,68.64
2023-04-25T04:11:01.905Z,68.52
2023-04-25T04:13:31.524Z,68.57
2023-04-25T04:15:59.585Z,68.72
2023-04-25T04:18:27.228Z,68.64
2023-04-25T04:20:54.904Z,68.52
2023-04-25T04:23:23.720Z,68.67
2023-04-25T04:25:51.471Z,68.43
2023-04-25T04:28:19.061Z,68.65
2023-04-25T04:30:48.095Z,68.69
2023-04-25T04:33:16.258Z,68.42
2023-04-25T04:35:44.021Z,68.46
2023-04-25T04:38:12.757Z,68.69
2023-04-25T04:40:40.374Z,68.67
2023-04-25T04:43:09.785Z,68.70
2023-04-25T04:45:37.532Z,68.63
2023-04-25T04:48:07.460Z,68.42
2023-04-25T04:50:36.563Z,68.76
2023-04-25T04:53:04.306Z,68.57
2023-04-25T04:55:31.957Z,68.61
2023-04-25T04:57:59.520Z,68.56
2023-04-25T05:00:29.526Z,68.48
2023-04-25T05:02:57.714Z,68.34
2023-04-25T05:05:26.961Z,68.25
2023-04-25T05:07:54.546Z,68.23
2023-04-25T05:10:22.349Z,68.43
2023-04-25T05:12:49.971Z,68.17
2023-04-25T05:15:17.808Z,68.45
2023-04-25T05:17:45.466Z,68.54
2023-04-25T05:20:14.986Z,68.51
2023-04-25T05:22:43.971Z,68.33
2023-04-25T05:25:11.669Z,68.71
2023-04-25T05:27:39.241Z,68.31
2023-04-25T05:30:08.067Z,68.69
2023-04-25T05:32:35.673Z,68.62
2023-04-25T05:35:03.774Z,68.81
2023-04-25T05:37:32.147Z,68.79
2023-04-25T05:40:01.265Z,68.64
2023-04-25T05:42:28.936Z,68.69
2023-04-25T05:44:56.536Z,68.80
2023-04-25T05:47:24.115Z,68.59
2023-04-25T05:49:51.720Z,68.76
2023-04-25T05:52:19.324Z,68.85
2023-04-25T05:54:46.936Z,68.65
2023-04-25T05:57:22.789Z,68.75
2023-04-25T05:59:50.367Z,68.79
2023-04-25T06:02:18.397Z,68.57
2023-04-25T06:04:46.332Z,68.80
2023-04-25T06:07:14.167Z,68.71
2023-04-25T06:09:41.727Z,68.76
2023-04-25T06:12:09.394Z,68.92
2023-04-25T06:14:38.563Z,68.73
2023-04-25T06:17:09.410Z,68.74
2023-04-25T06:19:37.858Z,68.90
2023-04-25T06:22:05.432Z,68.92
2023-04-25T06:24:33.137Z,68.71
2023-04-25T06:27:00.965Z,68.86
2023-04-25T06:29:28.588Z,68.74
2023-04-25T06:31:58.152Z,68.73
2023-04-25T06:34:25.760Z,68.97
2023-04-25T06:36:53.325Z,68.98
2023-04-25T06:39:21.119Z,68.74
2023-04-25T06:41:48.694Z,68.99
2023-04-25T06:44:16.337Z,68.82
2023-04-25T06:46:44.001Z,68.78
2023-04-25T06:49:13.125Z,68.60
2023-04-25T06:51:41.221Z,68.98
2023-04-25T06:54:08.899Z,68.96
2023-04-25T06:56:36.974Z,68.92
2023-04-25T06:59:04.565Z,68.75
2023-04-25T07:01:32.352Z,68.62
2023-04-25T07:04:00.437Z,68.88
2023-04-25T07:06:29.948Z,68.85
2023-04-25T07:08:57.621Z,68.88
2023-04-25T07:11:25.321Z,68.74
2023-04-25T07:13:52.918Z,68.89
2023-04-25T07:16:20.637Z,68.87
2023-04-25T07:18:48.545Z,68.83
2023-04-25T07:21:16.366Z,68.69
2023-04-25T07:23:45.322Z,68.87
2023-04-25T07:26:13.051Z,68.96
2023-04-25T07:28:40.758Z,68.70
2023-04-25T07:31:08.368Z,68.71
2023-04-25T07:33:35.980Z,68.92
2023-04-25T07:36:03.669Z,68.93
2023-04-25T07:38:31.238Z,68.93
2023-04-25T07:41:00.305Z,68.85
2023-04-25T07:43:27.913Z,68.70
2023-04-25T07:45:55.587Z,68.70
2023-04-25T07:48:23.398Z,68.86
2023-04-25T07:50:51.113Z,68.66
2023-04-25T07:53:19.841Z,69.02
2023-04-25T07:55:47.493Z,68.87
2023-04-25T07:58:16.593Z,68.75
2023-04-25T08:00:44.277Z,68.69
2023-04-25T08:03:11.987Z,68.94
2023-04-25T08:05:40.046Z,68.96
2023-04-25T08:08:07.771Z,68.90
2023-04-25T08:10:35.491Z,68.70
2023-04-25T08:13:03.561Z,68.80
2023-04-25T08:15:32.642Z,68.95
2023-04-25T08:18:00.748Z,68.74
2023-04-25T08:20:28.493Z,68.88
2023-04-25T08:22:56.121Z,68.89
2023-04-25T08:25:23.738Z,68.92
2023-04-25T08:27:51.522Z,68.76
2023-04-25T08:30:19.301Z,68.79
2023-04-25T08:32:48.449Z,69.15
2023-04-25T08:35:17.407Z,68.89
2023-04-25T08:37:45.003Z,69.05
2023-04-25T08:40:16.004Z,68.88
2023-04-25T08:42:44.489Z,69.32
2023-04-25T08:45:12.880Z,68.93
2023-04-25T08:47:42.417Z,69.15
2023-04-25T08:50:11.611Z,68.97
2023-04-25T08:52:45.662Z,69.28
2023-04-25T08:55:14.906Z,69.13
2023-04-25T08:57:44.147Z,69.10
2023-04-25T09:00:13.760Z,69.02
2023-04-25T09:02:42.180Z,69.25
2023-04-25T09:05:12.021Z,69.12
2023-04-25T09:07:39.641Z,69.01
2023-04-25T09:10:07.889Z,69.08
2023-04-25T09:12:37.522Z,68.93
2023-04-25T09:15:07.986Z,69.24
2023-04-25T09:17:35.701Z,69.14
2023-04-25T09:20:14.043Z,69.00
2023-04-25T09:22:41.747Z,69.05
2023-04-25T09:25:13.412Z,68.93
2023-04-25T09:27:52.509Z,68.80
2023-04-25T09:30:20.485Z,69.16
2023-04-25T09:32:49.187Z,68.96
2023-04-25T09:35:27.587Z,69.20
2023-04-25T09:37:55.824Z,68.73
2023-04-25T09:40:23.434Z,69.18
2023-04-25T09:42:51.469Z,68.75
2023-04-25T09:45:19.143Z,69.09
2023-04-25T09:47:47.110Z,69.02
2023-04-25T09:50:20.082Z,69.05
2023-04-25T09:53:04.630Z,68.95
2023-04-25T09:55:33.774Z,68.95
2023-04-25T09:58:07.129Z,69.14
2023-04-25T10:00:35.707Z,68.80
2023-04-25T10:03:05.500Z,69.16
2023-04-25T10:05:36.691Z,68.93
2023-04-25T10:08:07.491Z,69.06
2023-04-25T10:10:37.368Z,68.97
2023-04-25T10:13:07.286Z,69.07
2023-04-25T10:15:39.711Z,69.28
2023-04-25T10:18:08.722Z,69.18
2023-04-25T10:20:36.457Z,69.15
2023-04-25T10:23:15.938Z,69.09
2023-04-25T10:25:44.073Z,69.05
2023-04-25T10:28:11.858Z,68.94
2023-04-25T10:30:39.504Z,68.98
2023-04-25T10:33:18.540Z,68.79
2023-04-25T10:35:47.466Z,69.04
2023-04-25T10:38:17.284Z,68.87
2023-04-25T10:41:05.916Z,69.02
2023-04-25T10:43:41.448Z,69.13
2023-04-25T10:46:19.883Z,68.98
2023-04-25T10:48:50.085Z,68.78
2023-04-25T10:51:20.912Z,68.88
2023-04-25T10:53:59.876Z,69.03
2023-04-25T10:56:31.528Z,68.94
2023-04-25T10:59:07.669Z,68.83
2023-04-25T11:01:39.552Z,69.07
2023-04-25T11:04:07.512Z,69.19
2023-04-25T11:06:46.642Z,69.19
2023-04-25T11:09:16.100Z,69.28
2023-04-25T11:11:43.766Z,68.91
2023-04-25T11:14:11.480Z,69.14
2023-04-25T11:16:39.124Z,69.02
2023-04-25T11:19:06.730Z,68.88
2023-04-25T11:21:34.455Z,69.04
2023-04-25T11:24:02.442Z,68.95
2023-04-25T11:26:32.364Z,68.93
2023-04-25T11:29:01.282Z,68.94
2023-04-25T11:31:28.948Z,68.73
2023-04-25T11:33:59.375Z,68.79
2023-04-25T11:36:27.942Z,68.79
2023-04-25T11:38:56.095Z,69.21
2023-04-25T11:41:24.165Z,69.00
2023-04-25T11:43:55.531Z,68.94
2023-04-25T11:46:23.944Z,69.02
2023-04-25T11:48:52.328Z,68.77
2023-04-25T11:51:20.499Z,68.96
2023-04-25T11:53:48.092Z,69.18
2023-04-25T11:56:16.102Z,69.21
2023-04-25T11:58:58.933Z,69.11
2023-04-25T12:01:32.880Z,69.15
2023-04-25T12:04:13.557Z,69.09
2023-04-25T12:06:42.483Z,69.21
2023-04-25T12:09:11.867Z,69.00
2023-04-25T12:11:46.149Z,68.93
2023-04-25T12:14:23.764Z,68.84
2023-04-25T12:16:52.221Z,69.12
2023-04-25T12:19:22.283Z,69.21
2023-04-25T12:21:57.966Z,69.00
2023-04-25T12:24:28.735Z,68.74
2023-04-25T12:27:02.361Z,69.03
2023-04-25T12:29:41.932Z,69.07
2023-04-25T12:32:16.751Z,68.92
2023-04-25T12:34:44.581Z,68.89
2023-04-25T12:37:12.355Z,68.95
2023-04-25T12:39:40.070Z,69.17
2023-04-25T12:42:09.591Z,68.85
2023-04-25T12:44:39.091Z,68.97
2023-04-25T12:47:07.034Z,69.01
2023-04-25T12:49:34.934Z,69.01
2023-04-25T12:52:02.480Z,69.04
2023-04-25T12:54:30.223Z,68.97
2023-04-25T12:56:58.288Z,69.08
2023-04-25T12:59:25.890Z,69.08
2023-04-25T13:01:54.831Z,68.97
2023-04-25T13:04:22.980Z,69.10
2023-04-25T13:06:50.639Z,69.00
2023-04-25T13:09:18.346Z,69.12
2023-04-25T13:11:46.951Z,69.08
2023-04-25T13:14:14.599Z,69.09
2023-04-25T13:16:42.269Z,69.09
2023-04-25T13:19:12.472Z,69.04
2023-04-25T13:21:40.194Z,69.19
2023-04-25T13:24:08.463Z,69.20
2023-04-25T13:26:36.649Z,69.13
2023-04-25T13:29:04.994Z,69.15
2023-04-25T13:31:33.541Z,69.13
2023-04-25T13:34:01.156Z,69.13
2023-04-25T13:36:30.265Z,69.29
2023-04-25T13:38:57.846Z,69.18
2023-04-25T13:41:25.535Z,69.16
2023-04-25T13:43:53.427Z,69.15
2023-04-25T13:46:40.767Z,69.10
2023-04-25T13:49:12.731Z,69.25
2023-04-25T13:51:43.154Z,69.27
2023-04-25T13:54:10.960Z,69.32
2023-04-25T13:56:38.578Z,69.10
2023-04-25T13:59:06.156Z,69.08
2023-04-25T14:01:35.312Z,69.29
2023-04-25T14:04:04.736Z,69.12
2023-04-25T14:06:33.443Z,69.19
2023-04-25T14:09:02.574Z,69.12
2023-04-25T14:11:30.538Z,69.09
2023-04-25T14:13:58.154Z,69.09
2023-04-25T14:16:25.999Z,69.29
2023-04-25T14:18:53.816Z,69.00
2023-04-25T14:21:21.888Z,68.95
2023-04-25T14:23:49.815Z,69.01
2023-04-25T14:26:18.947Z,68.92
2023-04-25T14:28:46.588Z,69.01
2023-04-25T14:31:14.159Z,69.10
2023-04-25T14:33:43.778Z,69.16
2023-04-25T14:36:12.040Z,69.15
2023-04-25T14:38:39.815Z,68.95
2023-04-25T14:41:07.715Z,68.88
2023-04-25T14:43:37.332Z,68.91
2023-04-25T14:46:05.240Z,69.26
2023-04-25T14:48:33.033Z,69.05
2023-04-25T14:51:01.627Z,69.16
2023-04-25T14:53:29.569Z,69.25
2023-04-25T14:55:57.514Z,69.18
2023-04-25T14:58:25.318Z,69.15
2023-04-25T15:00:54.379Z,69.16
2023-04-25T15:03:22.137Z,69.03
2023-04-25T15:05:49.911Z,69.27
2023-04-25T15:08:17.506Z,69.14
2023-04-25T15:10:46.292Z,69.09
2023-04-25T15:13:14.031Z,69.27
2023-04-25T15:15:42.137Z,69.19
2023-04-25T15:18:11.179Z,69.22
2023-04-25T15:20:38.820Z,69.26
2023-04-25T15:23:07.059Z,69.34
2023-04-25T15:25:34.632Z,69.39
2023-04-25T15:28:02.224Z,68.99
2023-04-25T15:30:29.880Z,69.27
2023-04-25T15:32:57.545Z,68.96
2023-04-25T15:35:26.788Z,69.11
2023-04-25T15:37:54.601Z,69.18
2023-04-25T15:40:22.426Z,69.24
2023-04-25T15:42:51.915Z,69.09
2023-04-25T15:45:20.507Z,69.24
2023-04-25T15:47:48.368Z,69.09
2023-04-25T15:50:16.303Z,69.16
2023-04-25T15:52:45.865Z,69.29
2023-04-25T15:55:14.156Z,69.01
2023-04-25T15:57:42.399Z,69.15
2023-04-25T16:00:13.094Z,69.36
2023-04-25T16:02:42.475Z,69.32
2023-04-25T16:05:11.448Z,69.24
2023-04-25T16:07:40.881Z,69.26
2023-04-25T16:10:12.052Z,69.25
2023-04-25T16:12:40.053Z,69.19
2023-04-25T16:15:08.590Z,69.22
2023-04-25T16:17:36.334Z,69.26
2023-04-25T16:20:09.645Z,69.29
2023-04-25T16:22:37.427Z,69.27
2023-04-25T16:25:05.898Z,69.17
2023-04-25T16:27:35.569Z,69.25
2023-04-25T16:30:03.289Z,69.20
2023-04-25T16:32:30.939Z,69.16
2023-04-25T16:34:59.104Z,69.37
2023-04-25T16:37:27.404Z,68.98
2023-04-25T16:39:55.031Z,69.13
2023-04-25T16:42:22.655Z,69.20
2023-04-25T16:44:51.630Z,69.42
2023-04-25T16:47:20.562Z,69.23
2023-04-25T16:49:48.319Z,69.44
2023-04-25T16:52:16.124Z,69.10
2023-04-25T16:54:43.972Z,69.19
2023-04-25T16:57:11.928Z,69.25
2023-04-25T16:59:39.664Z,69.00
2023-04-25T17:02:13.312Z,69.47
2023-04-25T17:04:41.101Z,69.13
2023-04-25T17:07:09.072Z,69.32
2023-04-25T17:09:36.783Z,69.21
2023-04-25T17:12:04.645Z,69.20
2023-04-25T17:14:35.317Z,69.42
2023-04-25T17:17:03.673Z,69.15
2023-04-25T17:19:32.820Z,69.39
2023-04-25T17:22:00.488Z,69.39
2023-04-25T17:24:28.222Z,69.30
2023-04-25T17:26:56.506Z,69.11
2023-04-25T17:29:24.662Z,69.12
2023-04-25T17:31:53.544Z,69.32
2023-04-25T17:34:21.484Z,69.18
2023-04-25T17:36:50.552Z,69.25
2023-04-25T17:39:18.298Z,69.10
2023-04-25T17:41:46.019Z,69.39
2023-04-25T17:44:13.644Z,69.20
2023-04-25T17:46:41.465Z,69.31
2023-04-25T17:49:09.244Z,69.36
2023-04-25T17:51:37.114Z,69.33
2023-04-25T17:54:06.701Z,69.13
2023-04-25T17:56:36.527Z,69.28
2023-04-25T17:59:04.586Z,69.23
2023-04-25T18:01:32.193Z,69.37
2023-04-25T18:04:00.148Z,69.19
2023-04-25T18:06:29.335Z,69.29
2023-04-25T18:08:57.199Z,69.14
2023-04-25T18:11:26.504Z,69.27
2023-04-25T18:13:54.096Z,69.45
2023-04-25T18:16:22.022Z,69.05
2023-04-25T18:18:53.457Z,69.26
2023-04-25T18:21:21.572Z,69.25
2023-04-25T18:23:49.283Z,69.26
2023-04-25T18:26:16.884Z,69.31
2023-04-25T18:28:45.813Z,69.27
2023-04-25T18:31:13.928Z,69.39
2023-04-25T18:33:41.719Z,69.55
2023-04-25T18:36:09.371Z,69.10
2023-04-25T18:38:36.957Z,69.42
2023-04-25T18:41:18.150Z,69.32
2023-04-25T18:43:54.294Z,69.34
2023-04-25T18:46:23.268Z,69.05
2023-04-25T18:48:53.349Z,69.19
2023-04-25T18:51:22.760Z,69.09
2023-04-25T18:53:50.740Z,69.22
2023-04-25T18:56:20.970Z,69.23
2023-04-25T18:58:48.707Z,69.18
2023-04-25T19:01:18.318Z,69.11
2023-04-25T19:03:46.321Z,69.14
2023-04-25T19:06:14.021Z,69.21
2023-04-25T19:08:41.599Z,69.25
2023-04-25T19:11:20.665Z,69.38
2023-04-25T19:13:49.031Z,69.09
2023-04-25T19:16:19.615Z,69.37
2023-04-25T19:18:48.332Z,69.12
2023-04-25T19:21:16.261Z,69.29
2023-04-25T19:23:43.897Z,68.93
2023-04-25T19:26:11.485Z,69.16
2023-04-25T19:28:39.132Z,69.25
2023-04-25T19:31:07.229Z,69.22
2023-04-25T19:33:36.435Z,69.15
2023-04-25T19:36:04.360Z,69.19
2023-04-25T19:38:32.272Z,69.07
2023-04-25T19:40:59.949Z,69.20
2023-04-25T19:43:27.625Z,69.23
2023-04-25T19:45:55.469Z,69.19
2023-04-25T19:48:23.603Z,69.16
2023-04-25T19:50:52.578Z,69.08
2023-04-25T19:53:20.152Z,69.21
2023-04-25T19:55:47.844Z,69.11
2023-04-25T19:58:16.553Z,69.09
2023-04-25T20:00:44.136Z,69.28
2023-04-25T20:03:12.126Z,69.31
2023-04-25T20:05:39.915Z,69.40
2023-04-25T20:08:09.061Z,68.99
2023-04-25T20:10:36.815Z,69.18
2023-04-25T20:13:05.451Z,69.11
2023-04-25T20:15:33.129Z,69.36
2023-04-25T20:18:00.933Z,69.24
2023-04-25T20:20:28.601Z,69.05
2023-04-25T20:22:56.337Z,69.28
2023-04-25T20:25:25.397Z,69.04
2023-04-25T20:27:53.042Z,69.08
2023-04-25T20:30:21.434Z,69.37
2023-04-25T20:32:49.928Z,69.16
2023-04-25T20:35:17.709Z,68.92
2023-04-25T20:37:46.412Z,69.23
2023-04-25T20:40:14.232Z,69.12
2023-04-25T20:42:43.250Z,69.13
2023-04-25T20:45:13.347Z,69.09
2023-04-25T20:47:41.422Z,68.97
2023-04-25T20:50:10.964Z,69.29
2023-04-25T20:52:38.611Z,68.99
2023-04-25T20:55:07.387Z,69.23
2023-04-25T20:57:34.988Z,69.13
2023-04-25T21:00:13.197Z,69.04
2023-04-25T21:02:40.982Z,68.99
2023-04-25T21:05:09.310Z,69.25
2023-04-25T21:07:36.892Z,69.24
2023-04-25T21:10:05.264Z,69.28
2023-04-25T21:12:32.974Z,69.28
2023-04-25T21:15:01.034Z,69.16
2023-04-25T21:17:30.051Z,69.14
2023-04-25T21:19:57.669Z,69.28
2023-04-25T21:22:25.677Z,69.38
2023-04-25T21:24:54.249Z,69.43
2023-04-25T21:27:21.832Z,68.97
2023-04-25T21:29:49.456Z,69.31
2023-04-25T21:32:20.765Z,69.22
2023-04-25T21:34:49.754Z,69.40
2023-04-25T21:37:17.350Z,69.22
2023-04-25T21:39:47.856Z,69.41
2023-04-25T21:42:15.557Z,69.29
2023-04-25T21:44:43.147Z,69.47
2023-04-25T21:47:10.750Z,69.34
2023-04-25T21:49:38.375Z,69.28
2023-04-25T21:52:07.405Z,68.99
2023-04-25T21:54:36.442Z,69.17
2023-04-25T21:57:04.212Z,69.32
2023-04-25T21:59:32.867Z,69.30
2023-04-25T22:02:00.502Z,69.22
2023-04-25T22:04:28.451Z,69.35
2023-04-25T22:06:56.903Z,69.21
2023-04-25T22:09:25.951Z,69.28
2023-04-25T22:11:54.006Z,69.13
2023-04-25T22:14:22.038Z,68.97
2023-04-25T22:16:50.252Z,69.34
2023-04-25T22:19:17.854Z,69.13
2023-04-25T22:21:45.423Z,69.16
2023-04-25T22:24:13.575Z,69.14
2023-04-25T22:26:42.803Z,69.36
2023-04-25T22:29:10.604Z,69.14
2023-04-25T22:31:38.212Z,69.34
2023-04-25T22:34:05.869Z,69.32
2023-04-25T22:36:33.983Z,69.21
2023-04-25T22:39:01.610Z,69.19
2023-04-25T22:41:29.203Z,69.08
2023-04-25T22:43:58.092Z,69.19
2023-04-25T22:46:25.766Z,69.31
2023-04-25T22:48:53.593Z,69.23
2023-04-25T22:51:21.382Z,69.20
2023-04-25T22:53:49.576Z,69.29
2023-04-25T22:56:17.365Z,69.23
2023-04-25T22:58:44.993Z,69.21
2023-04-25T23:01:13.994Z,69.05
2023-04-25T23:03:41.803Z,69.39
2023-04-25T23:06:09.565Z,69.01
2023-04-25T23:08:37.242Z,69.07
2023-04-25T23:11:07.758Z,69.22
2023-04-25T23:13:36.592Z,69.33
2023-04-25T23:16:07.315Z,69.01
2023-04-25T23:18:36.642Z,69.12
2023-04-25T23:21:04.896Z,69.37
2023-04-25T23:23:32.780Z,69.26
2023-04-25T23:26:00.456Z,69.26
2023-04-25T23:28:28.034Z,69.33
2023-04-25T23:30:55.862Z,69.36
2023-04-25T23:33:23.457Z,69.06
2023-04-25T23:35:52.373Z,69.62
2023-04-25T23:38:20.842Z,69.29
2023-04-25T23:40:48.422Z,69.21
2023-04-25T23:43:16.404Z,69.38
2023-04-25T23:45:46.176Z,69.18
2023-04-25T23:48:14.019Z,69.30
2023-04-25T23:50:41.604Z,69.15
2023-04-25T23:53:10.881Z,69.40
2023-04-25T23:55:38.510Z,69.36
2023-04-25T23:58:06.185Z,69.36
